createdAt,value
2022-12-13T00:01:27.430Z,-6.64
2022-12-13T00:03:55.378Z,-6.68
2022-12-13T00:06:22.269Z,-6.70
2022-12-13T00:08:48.805Z,-6.83
2022-12-13T00:11:16.784Z,-6.91
2022-12-13T00:13:43.701Z,-7.00
2022-12-13T00:16:13.595Z,-7.00
2022-12-13T00:18:40.441Z,-7.05
2022-12-13T00:21:13.138Z,-7.16
2022-12-13T00:23:39.594Z,-7.14
2022-12-13T00:26:06.931Z,-7.17
2022-12-13T00:28:33.454Z,-7.33
2022-12-13T00:31:27.038Z,-7.41
2022-12-13T00:33:49.895Z,-7.52
2022-12-13T00:36:16.476Z,-7.60
2022-12-13T00:38:43.012Z,-7.80
2022-12-13T00:41:18.362Z,-7.91
2022-12-13T00:43:45.180Z,-8.05
2022-12-13T00:46:19.731Z,-8.04
2022-12-13T00:48:50.843Z,-8.07
2022-12-13T00:51:17.818Z,-8.17
2022-12-13T00:53:44.496Z,-8.14
2022-12-13T00:56:14.032Z,-8.11
2022-12-13T00:58:41.619Z,-7.92
2022-12-13T01:01:11.049Z,-7.87
2022-12-13T01:03:38.782Z,-7.76
2022-12-13T01:06:29.564Z,-7.74
2022-12-13T01:08:55.986Z,-7.87
2022-12-13T01:11:22.867Z,-7.75
2022-12-13T01:13:49.646Z,-7.67
2022-12-13T01:16:16.295Z,-7.56
2022-12-13T01:18:42.800Z,-7.58
2022-12-13T01:21:13.404Z,-7.49
2022-12-13T01:23:40.659Z,-7.41
2022-12-13T01:26:09.845Z,-7.51
2022-12-13T01:28:36.344Z,-7.42
2022-12-13T01:31:10.043Z,-7.46
2022-12-13T01:33:38.034Z,-7.41
2022-12-13T01:36:07.075Z,-7.50
2022-12-13T01:38:38.012Z,-7.56
2022-12-13T01:41:17.073Z,-7.46
2022-12-13T01:43:44.683Z,-7.33
2022-12-13T01:46:12.008Z,-7.45
2022-12-13T01:48:44.295Z,-7.45
2022-12-13T01:51:14.880Z,-7.51
2022-12-13T01:53:43.266Z,-7.59
2022-12-13T01:56:18.820Z,-7.64
2022-12-13T01:58:48.536Z,-7.62
2022-12-13T02:01:16.151Z,-7.81
2022-12-13T02:03:42.889Z,-7.80
2022-12-13T02:06:36.435Z,-7.80
2022-12-13T02:09:05.604Z,-7.78
2022-12-13T02:11:35.228Z,-7.82
2022-12-13T02:14:01.675Z,-7.98
2022-12-13T02:16:28.042Z,-7.94
2022-12-13T02:19:03.697Z,-7.96
2022-12-13T02:21:58.047Z,-7.93
2022-12-13T02:24:55.035Z,-7.97
2022-12-13T02:27:33.682Z,-7.91
2022-12-13T02:30:19.541Z,-7.91
2022-12-13T02:33:11.439Z,-7.76
2022-12-13T02:35:59.903Z,-7.77
2022-12-13T02:38:52.272Z,-7.80
2022-12-13T02:41:36.880Z,-7.93
2022-12-13T02:44:22.239Z,-7.78
2022-12-13T02:46:55.656Z,-7.78
2022-12-13T02:49:25.433Z,-7.80
2022-12-13T02:51:52.654Z,-7.72
2022-12-13T02:54:19.258Z,-7.77
2022-12-13T02:56:56.510Z,-7.93
2022-12-13T02:59:28.268Z,-7.95
2022-12-13T03:02:21.536Z,-8.03
2022-12-13T03:05:25.203Z,-7.96
2022-12-13T03:08:17.462Z,-7.96
2022-12-13T03:11:04.618Z,-8.06
2022-12-13T03:13:44.499Z,-8.09
2022-12-13T03:16:22.513Z,-8.05
2022-12-13T03:18:51.807Z,-8.21
2022-12-13T03:21:18.346Z,-8.19
2022-12-13T03:23:46.520Z,-8.14
2022-12-13T03:26:18.356Z,-8.10
2022-12-13T03:28:44.812Z,-8.04
2022-12-13T03:31:11.304Z,-8.05
2022-12-13T03:33:38.825Z,-8.17
2022-12-13T03:36:06.363Z,-8.17
2022-12-13T03:38:32.911Z,-8.10
2022-12-13T03:41:03.307Z,-8.11
2022-12-13T03:43:30.125Z,-8.08
2022-12-13T03:45:56.808Z,-8.24
2022-12-13T03:48:24.160Z,-8.35
2022-12-13T03:50:53.311Z,-8.35
2022-12-13T03:53:22.313Z,-8.41
2022-12-13T03:55:58.521Z,-8.46
2022-12-13T03:58:27.584Z,-8.67
2022-12-13T04:01:05.042Z,-8.75
2022-12-13T04:03:31.438Z,-8.77
2022-12-13T04:05:57.744Z,-8.76
2022-12-13T04:08:24.242Z,-8.85
2022-12-13T04:10:50.738Z,-8.82
2022-12-13T04:13:32.390Z,-8.80
2022-12-13T04:15:58.929Z,-8.78
2022-12-13T04:18:25.477Z,-8.74
2022-12-13T04:20:51.917Z,-8.70
2022-12-13T04:23:19.261Z,-8.62
2022-12-13T04:25:45.909Z,-8.51
2022-12-13T04:28:12.379Z,-8.55
2022-12-13T04:30:48.486Z,-8.51
2022-12-13T04:33:21.121Z,-8.56
2022-12-13T04:35:48.051Z,-8.49
2022-12-13T04:38:15.765Z,-8.56
2022-12-13T04:40:42.217Z,-8.47
2022-12-13T04:43:08.741Z,-8.33
2022-12-13T04:45:35.228Z,-8.36
2022-12-13T04:48:03.429Z,-8.38
2022-12-13T04:50:32.412Z,-8.48
2022-12-13T04:52:58.911Z,-8.47
2022-12-13T04:55:25.480Z,-8.61
2022-12-13T04:57:52.080Z,-8.66
2022-12-13T05:00:18.683Z,-8.70
2022-12-13T05:02:45.157Z,-8.69
2022-12-13T05:05:13.589Z,-8.56
2022-12-13T05:07:42.132Z,-8.56
2022-12-13T05:10:10.278Z,-8.70
2022-12-13T05:12:36.790Z,-8.62
2022-12-13T05:15:03.773Z,-8.65
2022-12-13T05:17:30.383Z,-8.68
2022-12-13T05:19:57.068Z,-8.66
2022-12-13T05:22:23.554Z,-8.54
2022-12-13T05:24:50.340Z,-8.39
2022-12-13T05:27:24.399Z,-8.46
2022-12-13T05:30:05.501Z,-8.59
2022-12-13T05:32:43.370Z,-8.44
2022-12-13T05:35:22.034Z,-8.32
2022-12-13T05:37:53.753Z,-8.44
2022-12-13T05:40:25.717Z,-8.56
2022-12-13T05:42:52.653Z,-8.57
2022-12-13T05:45:28.861Z,-8.50
2022-12-13T05:47:55.259Z,-8.49
2022-12-13T05:50:21.616Z,-8.48
2022-12-13T05:52:49.543Z,-8.48
2022-12-13T05:55:25.326Z,-8.37
2022-12-13T05:57:51.963Z,-8.42
2022-12-13T06:00:29.003Z,-8.37
2022-12-13T06:03:00.457Z,-8.40
2022-12-13T06:05:28.540Z,-8.49
2022-12-13T06:07:57.479Z,-8.34
2022-12-13T06:10:24.674Z,-8.37
2022-12-13T06:12:51.065Z,-8.32
2022-12-13T06:15:22.554Z,-8.28
2022-12-13T06:17:49.752Z,-8.34
2022-12-13T06:20:23.444Z,-8.31
2022-12-13T06:22:52.452Z,-8.22
2022-12-13T06:25:30.694Z,-8.30
2022-12-13T06:28:00.897Z,-8.29
2022-12-13T06:30:29.576Z,-8.29
2022-12-13T06:32:56.333Z,-8.34
2022-12-13T06:35:28.008Z,-8.30
2022-12-13T06:37:55.611Z,-8.38
2022-12-13T06:40:31.197Z,-8.59
2022-12-13T06:42:57.929Z,-8.83
2022-12-13T06:45:25.284Z,-8.80
2022-12-13T06:47:51.941Z,-8.76
2022-12-13T06:50:18.392Z,-8.74
2022-12-13T06:52:46.113Z,-8.65
2022-12-13T06:55:12.741Z,-8.63
2022-12-13T06:57:40.725Z,-8.71
2022-12-13T07:00:09.484Z,-8.71
2022-12-13T07:02:36.425Z,-8.60
2022-12-13T07:05:03.036Z,-8.76
2022-12-13T07:07:29.817Z,-8.62
2022-12-13T07:09:56.606Z,-8.67
2022-12-13T07:12:23.557Z,-8.77
2022-12-13T07:14:50.054Z,-8.60
2022-12-13T07:17:33.141Z,-8.72
2022-12-13T07:20:08.167Z,-8.64
2022-12-13T07:22:37.831Z,-8.65
2022-12-13T07:25:06.757Z,-8.56
2022-12-13T07:28:01.285Z,-8.38
2022-12-13T07:30:30.064Z,-8.47
2022-12-13T07:32:56.703Z,-8.50
2022-12-13T07:35:23.324Z,-8.63
2022-12-13T07:37:49.808Z,-8.63
2022-12-13T07:40:16.412Z,-8.72
2022-12-13T07:42:49.573Z,-8.67
2022-12-13T07:45:16.343Z,-8.63
2022-12-13T07:47:42.885Z,-8.64
2022-12-13T07:50:24.367Z,-8.53
2022-12-13T07:52:52.520Z,-8.56
2022-12-13T07:55:18.991Z,-8.63
2022-12-13T07:57:53.581Z,-8.70
2022-12-13T08:00:22.596Z,-8.54
2022-12-13T08:02:49.078Z,-8.49
2022-12-13T08:05:26.895Z,-8.51
2022-12-13T08:07:54.160Z,-8.57
2022-12-13T08:10:21.131Z,-8.53
2022-12-13T08:12:47.993Z,-8.44
2022-12-13T08:15:14.586Z,-8.40
2022-12-13T08:17:41.201Z,-8.23
2022-12-13T08:20:08.415Z,-8.25
2022-12-13T08:22:35.801Z,-8.27
2022-12-13T08:25:03.389Z,-8.33
2022-12-13T08:27:29.855Z,-8.31
2022-12-13T08:29:56.590Z,-8.39
2022-12-13T08:32:23.675Z,-8.42
2022-12-13T08:34:50.384Z,-8.39
2022-12-13T08:37:17.540Z,-8.37
2022-12-13T08:39:46.995Z,-8.37
2022-12-13T08:42:19.240Z,-8.19
2022-12-13T08:44:51.434Z,-8.14
2022-12-13T08:47:26.268Z,-8.17
2022-12-13T08:50:04.201Z,-8.10
2022-12-13T08:52:39.785Z,-8.10
2022-12-13T08:55:08.736Z,-7.97
2022-12-13T08:57:39.348Z,-8.03
2022-12-13T09:00:06.757Z,-8.08
2022-12-13T09:02:37.723Z,-7.96
2022-12-13T09:05:05.863Z,-7.89
2022-12-13T09:07:32.305Z,-7.85
2022-12-13T09:09:58.831Z,-7.87
2022-12-13T09:12:33.875Z,-7.77
2022-12-13T09:15:22.593Z,-7.73
2022-12-13T09:17:52.231Z,-7.61
2022-12-13T09:20:29.665Z,-7.74
2022-12-13T09:23:02.157Z,-7.66
2022-12-13T09:25:37.277Z,-7.66
2022-12-13T09:28:08.427Z,-7.60
2022-12-13T09:30:39.013Z,-7.59
2022-12-13T09:33:27.796Z,-7.48
2022-12-13T09:35:52.514Z,-7.60
2022-12-13T09:38:19.582Z,-7.51
2022-12-13T09:40:49.010Z,-7.37
2022-12-13T09:43:32.515Z,-7.20
2022-12-13T09:46:13.030Z,-7.19
2022-12-13T09:48:51.885Z,-7.43
2022-12-13T09:51:28.289Z,-7.41
2022-12-13T09:54:05.271Z,-7.34
2022-12-13T09:56:35.459Z,-7.34
2022-12-13T09:59:03.714Z,-7.17
2022-12-13T10:01:30.285Z,-7.10
2022-12-13T10:04:00.014Z,-7.03
2022-12-13T10:06:31.395Z,-6.80
2022-12-13T10:09:00.355Z,-6.68
2022-12-13T10:11:32.140Z,-6.65
2022-12-13T10:14:09.816Z,-6.71
2022-12-13T10:16:37.191Z,-6.76
2022-12-13T10:19:35.303Z,-6.73
2022-12-13T10:22:04.650Z,-6.92
2022-12-13T10:24:49.546Z,-6.79
2022-12-13T10:27:25.881Z,-6.75
2022-12-13T10:30:15.165Z,-6.70
2022-12-13T10:32:59.644Z,-6.77
2022-12-13T10:35:32.670Z,-6.75
2022-12-13T10:38:20.631Z,-6.84
2022-12-13T10:40:48.857Z,-6.83
2022-12-13T10:43:17.200Z,-6.83
2022-12-13T10:46:02.394Z,-6.83
2022-12-13T10:48:42.610Z,-6.86
2022-12-13T10:51:12.320Z,-6.81
2022-12-13T10:53:47.371Z,-6.73
2022-12-13T10:56:23.034Z,-6.69
2022-12-13T10:59:16.590Z,-6.67
2022-12-13T11:01:44.248Z,-6.62
2022-12-13T11:04:31.499Z,-6.46
2022-12-13T11:07:31.793Z,-6.46
2022-12-13T11:10:18.471Z,-6.32
2022-12-13T11:12:47.526Z,-6.18
2022-12-13T11:15:23.158Z,-6.26
2022-12-13T11:17:53.328Z,-6.38
2022-12-13T11:20:24.584Z,-6.17
2022-12-13T11:23:19.613Z,-6.08
2022-12-13T11:25:46.300Z,-6.30
2022-12-13T11:28:30.714Z,-6.16
2022-12-13T11:31:08.411Z,-6.19
2022-12-13T11:33:47.706Z,-6.18
2022-12-13T11:36:28.180Z,-6.20
2022-12-13T11:39:06.954Z,-6.03
2022-12-13T11:41:42.085Z,-6.26
2022-12-13T11:44:18.087Z,-6.18
2022-12-13T11:46:53.941Z,-6.38
2022-12-13T11:49:42.244Z,-6.26
2022-12-13T11:52:29.191Z,-6.19
2022-12-13T11:55:15.775Z,-6.29
2022-12-13T11:57:52.766Z,-6.30
2022-12-13T12:00:33.671Z,-6.28
2022-12-13T12:03:21.807Z,-6.27
2022-12-13T12:05:59.672Z,-6.26
2022-12-13T12:08:37.649Z,-6.27
2022-12-13T12:11:14.571Z,-6.29
2022-12-13T12:13:52.070Z,-6.28
2022-12-13T12:16:35.677Z,-6.25
2022-12-13T12:19:02.668Z,-6.19
2022-12-13T12:22:15.094Z,-6.29
2022-12-13T12:24:57.248Z,-6.32
2022-12-13T12:27:33.143Z,-6.10
2022-12-13T12:30:08.637Z,-6.08
2022-12-13T12:32:50.987Z,-5.88
2022-12-13T12:35:40.430Z,-5.86
2022-12-13T12:38:37.068Z,-5.85
2022-12-13T12:41:31.456Z,-5.59
2022-12-13T12:44:31.121Z,-5.52
2022-12-13T12:48:07.170Z,-5.41
2022-12-13T12:50:43.855Z,-5.60
2022-12-13T12:53:22.465Z,-5.74
2022-12-13T12:56:19.646Z,-5.59
2022-12-13T12:59:10.227Z,-5.57
2022-12-13T13:01:45.752Z,-5.42
2022-12-13T13:04:22.990Z,-5.44
2022-12-13T13:07:28.717Z,-5.43
2022-12-13T13:09:56.623Z,-5.07
2022-12-13T13:12:28.907Z,-4.82
2022-12-13T13:14:57.941Z,-4.61
2022-12-13T13:17:24.322Z,-4.60
2022-12-13T13:20:17.564Z,-4.07
2022-12-13T13:22:53.846Z,-4.24
2022-12-13T13:25:33.232Z,-4.44
2022-12-13T13:28:15.231Z,-4.69
2022-12-13T13:31:05.530Z,-4.77
2022-12-13T13:33:52.275Z,-5.02
2022-12-13T13:36:44.629Z,-4.77
2022-12-13T13:39:19.206Z,-4.89
2022-12-13T13:42:08.524Z,-4.87
2022-12-13T13:44:50.264Z,-4.74
2022-12-13T13:47:22.650Z,-4.77
2022-12-13T13:50:08.390Z,-4.98
2022-12-13T13:52:45.752Z,-4.72
2022-12-13T13:55:24.350Z,-4.70
2022-12-13T13:58:10.688Z,-4.83
2022-12-13T14:01:16.211Z,-5.03
2022-12-13T14:04:07.887Z,-4.69
2022-12-13T14:07:01.513Z,-4.67
2022-12-13T14:09:40.076Z,-4.45
2022-12-13T14:12:34.795Z,-4.45
2022-12-13T14:15:31.924Z,-4.75
2022-12-13T14:18:32.794Z,-4.89
2022-12-13T14:21:16.932Z,-4.98
2022-12-13T14:23:58.955Z,-5.29
2022-12-13T14:26:36.403Z,-5.17
2022-12-13T14:29:10.517Z,-5.10
2022-12-13T14:31:47.005Z,-5.11
2022-12-13T14:34:44.425Z,-5.23
2022-12-13T14:37:40.309Z,-5.28
2022-12-13T14:40:32.780Z,-5.32
2022-12-13T14:42:59.889Z,-5.38
2022-12-13T14:45:33.103Z,-5.40
2022-12-13T14:48:03.621Z,-5.46
2022-12-13T14:50:34.911Z,-5.46
2022-12-13T14:53:03.302Z,-5.39
2022-12-13T14:55:33.034Z,-5.45
2022-12-13T14:58:01.969Z,-5.45
2022-12-13T15:00:32.814Z,-5.39
2022-12-13T15:03:01.289Z,-5.41
2022-12-13T15:05:48.666Z,-5.26
2022-12-13T15:08:18.910Z,-5.33
2022-12-13T15:10:48.866Z,-5.22
2022-12-13T15:13:30.772Z,-148.29
2022-12-13T15:16:10.595Z,-148.29
2022-12-13T15:18:50.682Z,-148.29
2022-12-13T15:21:24.911Z,-148.29
2022-12-13T15:23:58.619Z,-148.29
2022-12-13T15:26:32.011Z,-148.29
2022-12-13T15:29:09.612Z,-148.29
2022-12-13T15:31:38.182Z,-148.29
2022-12-13T15:34:34.647Z,-148.29
2022-12-13T15:37:05.491Z,-148.29
2022-12-13T15:39:37.925Z,-148.29
2022-12-13T15:42:04.876Z,-148.29
2022-12-13T15:44:37.863Z,-148.29
2022-12-13T15:47:08.570Z,-148.29
2022-12-13T15:49:44.027Z,-148.29
2022-12-13T15:52:16.247Z,-148.29
2022-12-13T15:55:03.291Z,-148.29
2022-12-13T15:57:33.841Z,-148.29
2022-12-13T16:00:16.706Z,-148.29
2022-12-13T16:02:59.916Z,-148.29
2022-12-13T16:05:36.062Z,-148.29
2022-12-13T16:08:21.832Z,-148.29
2022-12-13T16:10:50.400Z,-148.29
2022-12-13T16:13:27.024Z,-148.29
2022-12-13T16:16:09.156Z,-148.29
2022-12-13T16:18:45.331Z,-148.29
2022-12-13T16:21:12.018Z,-148.29
2022-12-13T16:23:38.526Z,-148.29
2022-12-13T16:26:08.924Z,-148.29
2022-12-13T16:28:35.986Z,-148.29
2022-12-13T16:31:21.440Z,-148.29
2022-12-13T16:33:48.589Z,-148.29
2022-12-13T16:36:15.424Z,-148.29
2022-12-13T16:38:42.170Z,-148.29
2022-12-13T16:41:23.484Z,-5.23
2022-12-13T16:43:52.860Z,-5.13
2022-12-13T16:47:15.424Z,-5.18
2022-12-13T16:49:19.478Z,-5.17
2022-12-13T16:51:48.574Z,-5.15
2022-12-13T16:54:16.697Z,-5.15
2022-12-13T16:56:43.534Z,-5.13
2022-12-13T16:59:15.083Z,-5.15
2022-12-13T17:01:43.489Z,-5.20
2022-12-13T17:04:20.607Z,-5.19
2022-12-13T17:06:50.086Z,-5.11
2022-12-13T17:09:17.712Z,-5.14
2022-12-13T17:11:44.706Z,-5.10
2022-12-13T17:14:11.495Z,-5.15
2022-12-13T17:16:37.990Z,-5.13
2022-12-13T17:19:04.665Z,-5.15
2022-12-13T17:21:32.015Z,-5.17
2022-12-13T17:24:01.375Z,-5.07
2022-12-13T17:26:29.151Z,-5.00
2022-12-13T17:28:55.948Z,-4.97
2022-12-13T17:31:22.950Z,-4.99
2022-12-13T17:33:49.662Z,-5.08
2022-12-13T17:36:16.938Z,-5.13
2022-12-13T17:38:47.607Z,-5.05
2022-12-13T17:41:18.148Z,-5.08
2022-12-13T17:43:45.094Z,-5.09
2022-12-13T17:46:17.309Z,-5.10
2022-12-13T17:48:45.455Z,-5.14
2022-12-13T17:51:13.229Z,-5.13
2022-12-13T17:53:42.625Z,-5.16
2022-12-13T17:56:20.624Z,-5.07
2022-12-13T17:58:47.632Z,-5.05
2022-12-13T18:01:20.625Z,-5.07
2022-12-13T18:03:48.743Z,-4.99
2022-12-13T18:06:15.653Z,-4.95
2022-12-13T18:08:44.552Z,-4.95
2022-12-13T18:13:59.464Z,-4.88
2022-12-13T18:16:34.122Z,-4.83
2022-12-13T18:19:07.175Z,-4.90
2022-12-13T18:21:35.278Z,-4.82
2022-12-13T18:24:01.796Z,-4.83
2022-12-13T18:26:28.346Z,-4.81
2022-12-13T18:28:54.960Z,-4.77
2022-12-13T18:31:24.645Z,-4.86
2022-12-13T18:33:54.019Z,-4.80
2022-12-13T18:36:23.251Z,-4.70
2022-12-13T18:38:50.377Z,-4.78
2022-12-13T18:41:23.312Z,-4.78
2022-12-13T18:43:55.747Z,-4.80
2022-12-13T18:46:22.311Z,-4.68
2022-12-13T18:48:48.784Z,-4.69
2022-12-13T18:51:15.262Z,-4.63
2022-12-13T18:53:42.398Z,-4.69
2022-12-13T18:56:18.259Z,-4.64
2022-12-13T18:58:45.985Z,-4.57
2022-12-13T19:01:13.114Z,-4.54
2022-12-13T19:03:39.983Z,-4.54
2022-12-13T19:06:07.530Z,-4.86
2022-12-13T19:08:36.323Z,-4.79
2022-12-13T19:11:03.777Z,-4.62
2022-12-13T19:13:32.262Z,-4.55
2022-12-13T19:16:06.056Z,-4.53
2022-12-13T19:18:33.043Z,-4.47
2022-12-13T19:20:59.611Z,-4.42
2022-12-13T19:23:26.802Z,-4.44
2022-12-13T19:25:53.767Z,-4.40
2022-12-13T19:28:20.589Z,-4.36
2022-12-13T19:30:48.015Z,-4.34
2022-12-13T19:33:15.606Z,-4.28
2022-12-13T19:35:46.758Z,-4.39
2022-12-13T19:38:13.693Z,-4.34
2022-12-13T19:40:42.220Z,-4.20
2022-12-13T19:43:11.139Z,-4.17
2022-12-13T19:45:38.211Z,-4.16
2022-12-13T19:48:06.492Z,-4.17
2022-12-13T19:50:35.012Z,-4.16
2022-12-13T19:53:01.904Z,-4.14
2022-12-13T19:55:28.422Z,-4.11
2022-12-13T19:57:55.202Z,-4.07
2022-12-13T20:00:22.348Z,-4.10
2022-12-13T20:02:50.774Z,-4.15
2022-12-13T20:05:18.449Z,-4.03
2022-12-13T20:07:45.893Z,-4.21
2022-12-13T20:10:15.094Z,-4.23
2022-12-13T20:12:41.432Z,-4.25
2022-12-13T20:15:09.031Z,-4.24
2022-12-13T20:17:36.069Z,-4.20
2022-12-13T20:20:03.938Z,-4.35
2022-12-13T20:22:31.856Z,-4.34
2022-12-13T20:25:00.160Z,-4.33
2022-12-13T20:27:27.435Z,-4.38
2022-12-13T20:29:54.062Z,-4.35
2022-12-13T20:32:21.383Z,-4.31
2022-12-13T20:34:51.700Z,-4.47
2022-12-13T20:37:24.295Z,-4.51
2022-12-13T20:39:50.915Z,-4.49
2022-12-13T20:42:18.382Z,-4.52
2022-12-13T20:44:47.151Z,-4.41
2022-12-13T20:47:14.371Z,-4.49
2022-12-13T20:49:41.456Z,-4.48
2022-12-13T20:52:08.756Z,-4.40
2022-12-13T20:54:36.204Z,-4.45
2022-12-13T20:57:03.635Z,-4.37
2022-12-13T20:59:30.638Z,-4.52
2022-12-13T21:01:57.322Z,-4.41
2022-12-13T21:04:24.187Z,-4.33
2022-12-13T21:06:50.967Z,-4.35
2022-12-13T21:09:20.646Z,-4.34
2022-12-13T21:11:49.761Z,-4.39
2022-12-13T21:14:22.177Z,-4.47
2022-12-13T21:17:00.963Z,-4.46
2022-12-13T21:19:37.437Z,-4.42
2022-12-13T21:22:13.334Z,-4.38
2022-12-13T21:24:46.388Z,-4.36
2022-12-13T21:27:13.470Z,-4.41
2022-12-13T21:29:40.103Z,-4.31
2022-12-13T21:32:08.784Z,-4.36
2022-12-13T21:34:35.325Z,-4.39
2022-12-13T21:37:01.706Z,-4.32
2022-12-13T21:39:28.453Z,-4.25
2022-12-13T21:41:56.640Z,-4.34
2022-12-13T21:44:23.783Z,-4.25
2022-12-13T21:49:37.466Z,-4.16
2022-12-13T21:52:04.516Z,-4.12
2022-12-13T21:54:30.968Z,-4.18
2022-12-13T21:57:16.107Z,-4.16
2022-12-13T21:59:42.693Z,-4.17
2022-12-13T22:02:15.813Z,-4.17
2022-12-13T22:04:57.582Z,-4.21
2022-12-13T22:07:26.864Z,-4.16
2022-12-13T22:09:54.405Z,-4.20
2022-12-13T22:12:22.774Z,-4.17
2022-12-13T22:14:49.924Z,-4.25
2022-12-13T22:17:17.871Z,-4.22
2022-12-13T22:19:48.465Z,-4.08
2022-12-13T22:22:17.383Z,-4.15
2022-12-13T22:24:46.213Z,-4.09
2022-12-13T22:27:18.336Z,-4.08
2022-12-13T22:29:44.766Z,-4.12
2022-12-13T22:32:11.210Z,-4.12
2022-12-13T22:34:37.862Z,-4.09
2022-12-13T22:37:04.376Z,-4.16
2022-12-13T22:39:31.120Z,-4.23
2022-12-13T22:41:58.146Z,-4.16
2022-12-13T22:44:24.635Z,-4.07
2022-12-13T22:46:51.062Z,-4.01
2022-12-13T22:49:17.771Z,-4.09
2022-12-13T22:51:44.336Z,-4.09
2022-12-13T22:54:10.713Z,-3.98
2022-12-13T22:56:37.284Z,-3.94
2022-12-13T22:59:07.810Z,-3.88
2022-12-13T23:01:37.340Z,-3.94
2022-12-13T23:04:05.852Z,-3.80
2022-12-13T23:06:37.626Z,-3.91
2022-12-13T23:09:08.124Z,-3.92
2022-12-13T23:11:53.594Z,-3.97
2022-12-13T23:14:28.914Z,-3.99
2022-12-13T23:16:55.836Z,-4.12
2022-12-13T23:22:09.260Z,-3.88
2022-12-13T23:24:35.827Z,-3.81
2022-12-13T23:27:02.394Z,-3.76
2022-12-13T23:29:28.722Z,-3.81
2022-12-13T23:31:55.173Z,-3.72
2022-12-13T23:34:21.944Z,-3.71
2022-12-13T23:36:48.354Z,-3.73
2022-12-13T23:39:14.742Z,-3.82
2022-12-13T23:41:41.149Z,-3.80
2022-12-13T23:44:07.686Z,-3.82
2022-12-13T23:46:35.556Z,-3.87
2022-12-13T23:49:05.224Z,-3.91
2022-12-13T23:51:32.576Z,-3.98
2022-12-13T23:53:59.146Z,-3.94
2022-12-13T23:56:25.705Z,-3.87
2022-12-13T23:58:52.235Z,-3.82
